createdAt,value
2017-12-04T00:00:46.460Z,1017.88
2017-12-04T00:01:46.475Z,1017.92
2017-12-04T00:03:46.509Z,1017.87
2017-12-04T00:04:46.525Z,1017.83
2017-12-04T00:05:46.542Z,1017.76
2017-12-04T00:06:46.558Z,1017.76
2017-12-04T00:07:46.575Z,1017.76
2017-12-04T00:08:46.591Z,1017.75
2017-12-04T00:09:46.608Z,1017.77
2017-12-04T00:10:46.624Z,1017.78
2017-12-04T00:11:46.640Z,1017.79
2017-12-04T00:12:46.659Z,1017.82
2017-12-04T00:13:46.676Z,1017.79
2017-12-04T00:14:46.691Z,1017.85
2017-12-04T00:15:46.706Z,1017.88
2017-12-04T00:16:46.725Z,1017.87
2017-12-04T00:17:46.741Z,1017.87
2017-12-04T00:18:46.757Z,1017.93
2017-12-04T00:19:46.773Z,1017.95
2017-12-04T00:20:46.790Z,1017.98
2017-12-04T00:21:46.808Z,1018.00
2017-12-04T00:22:46.821Z,1017.94
2017-12-04T00:23:46.840Z,1017.90
2017-12-04T00:24:46.864Z,1017.97
2017-12-04T00:25:46.877Z,1017.97
2017-12-04T00:26:46.888Z,1018.01
2017-12-04T00:27:46.905Z,1017.94
2017-12-04T00:28:46.921Z,1017.97
2017-12-04T00:29:46.939Z,1018.00
2017-12-04T00:30:46.954Z,1017.97
2017-12-04T00:31:46.970Z,1017.96
2017-12-04T00:32:46.988Z,1017.96
2017-12-04T00:33:47.060Z,1017.98
2017-12-04T00:34:47.020Z,1017.98
2017-12-04T00:35:47.036Z,1017.95
2017-12-04T00:36:47.054Z,1017.99
2017-12-04T00:37:47.071Z,1017.99
2017-12-04T00:38:47.085Z,1017.99
2017-12-04T00:39:47.101Z,1018.00
2017-12-04T00:40:47.119Z,1017.99
2017-12-04T00:41:47.136Z,1017.95
2017-12-04T00:42:47.152Z,1017.96
2017-12-04T00:43:47.168Z,1017.91
2017-12-04T00:44:47.188Z,1017.90
2017-12-04T00:45:47.202Z,1017.90
2017-12-04T00:46:47.217Z,1017.89
2017-12-04T00:47:47.233Z,1017.90
2017-12-04T00:48:47.251Z,1017.99
2017-12-04T00:49:47.267Z,1017.95
2017-12-04T00:50:47.284Z,1017.97
2017-12-04T00:51:47.401Z,1017.93
2017-12-04T00:52:47.322Z,1017.93
2017-12-04T00:53:47.334Z,1018.00
2017-12-04T00:54:47.349Z,1018.02
2017-12-04T00:55:47.367Z,1017.99
2017-12-04T00:56:47.384Z,1017.99
2017-12-04T00:57:47.399Z,1018.04
2017-12-04T00:58:47.415Z,1018.04
2017-12-04T00:59:47.432Z,1018.06
2017-12-04T01:00:47.448Z,1018.07
2017-12-04T01:01:47.478Z,1018.05
2017-12-04T01:02:47.482Z,1018.02
2017-12-04T01:03:47.500Z,1018.00
2017-12-04T01:04:47.515Z,1018.02
2017-12-04T01:05:47.531Z,1018.09
2017-12-04T01:06:47.547Z,1017.99
2017-12-04T01:07:47.564Z,1018.03
2017-12-04T01:08:47.581Z,1018.07
2017-12-04T01:09:47.599Z,1018.00
2017-12-04T01:10:47.615Z,1017.97
2017-12-04T01:11:47.630Z,1017.99
2017-12-04T01:12:47.648Z,1018.03
2017-12-04T01:13:47.664Z,1018.03
2017-12-04T01:14:47.680Z,1018.07
2017-12-04T01:15:47.696Z,1018.07
2017-12-04T01:16:47.715Z,1018.18
2017-12-04T01:17:47.731Z,1018.12
2017-12-04T01:18:47.746Z,1018.17
2017-12-04T01:19:47.763Z,1018.20
2017-12-04T01:20:47.781Z,1018.23
2017-12-04T01:21:47.806Z,1018.19
2017-12-04T01:22:47.813Z,1018.21
2017-12-04T01:23:47.829Z,1018.23
2017-12-04T01:24:47.847Z,1018.22
2017-12-04T01:25:47.866Z,1018.21
2017-12-04T01:26:47.878Z,1018.24
2017-12-04T01:27:47.897Z,1018.21
2017-12-04T01:28:47.913Z,1018.23
2017-12-04T01:29:47.930Z,1018.19
2017-12-04T01:30:47.947Z,1018.15
2017-12-04T01:31:47.964Z,1018.14
2017-12-04T01:32:47.979Z,1018.12
2017-12-04T01:33:47.996Z,1018.16
2017-12-04T01:34:48.013Z,1018.15
2017-12-04T01:35:48.029Z,1018.15
2017-12-04T01:36:48.046Z,1018.14
2017-12-04T01:37:48.064Z,1018.22
2017-12-04T01:38:48.080Z,1018.24
2017-12-04T01:39:48.097Z,1018.29
2017-12-04T01:40:48.112Z,1018.34
2017-12-04T01:41:48.129Z,1018.38
2017-12-04T01:42:48.146Z,1018.45
2017-12-04T01:43:48.163Z,1018.45
2017-12-04T01:44:48.180Z,1018.48
2017-12-04T01:45:48.196Z,1018.46
2017-12-04T01:46:48.213Z,1018.44
2017-12-04T01:47:48.229Z,1018.46
2017-12-04T01:48:48.246Z,1018.39
2017-12-04T01:49:48.263Z,1018.44
2017-12-04T01:50:48.279Z,1018.44
2017-12-04T01:51:48.297Z,1018.40
2017-12-04T01:52:48.314Z,1018.37
2017-12-04T01:53:48.330Z,1018.37
2017-12-04T01:54:48.597Z,1018.38
2017-12-04T01:55:48.362Z,1018.39
2017-12-04T01:56:48.379Z,1018.40
2017-12-04T01:57:48.397Z,1018.36
2017-12-04T01:58:48.413Z,1018.40
2017-12-04T01:59:48.432Z,1018.41
2017-12-04T02:00:48.446Z,1018.45
2017-12-04T02:01:48.463Z,1018.46
2017-12-04T02:02:48.479Z,1018.43
2017-12-04T02:03:48.497Z,1018.43
2017-12-04T02:04:48.517Z,1018.39
2017-12-04T02:05:48.532Z,1018.41
2017-12-04T02:06:48.546Z,1018.41
2017-12-04T02:07:48.563Z,1018.43
2017-12-04T02:08:48.580Z,1018.40
2017-12-04T02:09:48.597Z,1018.43
2017-12-04T02:10:48.614Z,1018.40
2017-12-04T02:11:48.630Z,1018.39
2017-12-04T02:12:48.647Z,1018.36
2017-12-04T02:13:48.667Z,1018.36
2017-12-04T02:14:48.680Z,1018.37
2017-12-04T02:15:48.697Z,1018.35
2017-12-04T02:16:48.714Z,1018.33
2017-12-04T02:17:48.731Z,1018.33
2017-12-04T02:18:48.748Z,1018.27
2017-12-04T02:19:48.766Z,1018.33
2017-12-04T02:20:48.782Z,1018.32
2017-12-04T02:21:48.799Z,1018.32
2017-12-04T02:22:48.815Z,1018.33
2017-12-04T02:23:48.833Z,1018.34
2017-12-04T02:24:48.849Z,1018.35
2017-12-04T02:25:48.867Z,1018.37
2017-12-04T02:26:48.884Z,1018.40
2017-12-04T02:27:48.900Z,1018.34
2017-12-04T02:28:48.917Z,1018.35
2017-12-04T02:29:48.934Z,1018.34
2017-12-04T02:30:48.950Z,1018.37
2017-12-04T02:31:48.969Z,1018.41
2017-12-04T02:32:48.986Z,1018.34
2017-12-04T02:33:49.006Z,1018.34
2017-12-04T02:34:49.018Z,1018.36
2017-12-04T02:35:49.035Z,1018.39
2017-12-04T02:36:49.055Z,1018.37
2017-12-04T02:37:49.068Z,1018.36
2017-12-04T02:38:49.084Z,1018.40
2017-12-04T02:39:49.102Z,1018.37
2017-12-04T02:40:49.119Z,1018.41
2017-12-04T02:41:49.137Z,1018.42
2017-12-04T02:42:49.153Z,1018.41
2017-12-04T02:43:49.176Z,1018.40
2017-12-04T02:44:49.188Z,1018.37
2017-12-04T02:45:49.205Z,1018.31
2017-12-04T02:46:49.221Z,1018.31
2017-12-04T02:47:49.238Z,1018.34
2017-12-04T02:48:49.254Z,1018.29
2017-12-04T02:49:49.270Z,1018.28
2017-12-04T02:50:49.388Z,1018.25
2017-12-04T02:51:49.304Z,1018.29
2017-12-04T02:52:49.320Z,1018.21
2017-12-04T02:53:49.338Z,1018.27
2017-12-04T02:54:49.354Z,1018.31
2017-12-04T02:55:49.372Z,1018.30
2017-12-04T02:56:49.388Z,1018.31
2017-12-04T02:57:49.404Z,1018.35
2017-12-04T02:58:49.422Z,1018.32
2017-12-04T02:59:49.438Z,1018.31
2017-12-04T03:00:49.455Z,1018.32
2017-12-04T03:01:49.471Z,1018.31
2017-12-04T03:02:49.488Z,1018.32
2017-12-04T03:03:49.505Z,1018.30
2017-12-04T03:04:49.528Z,1018.29
2017-12-04T03:05:49.539Z,1018.29
2017-12-04T03:06:49.554Z,1018.28
2017-12-04T03:07:49.574Z,1018.31
2017-12-04T03:08:49.590Z,1018.34
2017-12-04T03:09:49.607Z,1018.33
2017-12-04T03:10:49.622Z,1018.34
2017-12-04T03:11:49.640Z,1018.31
2017-12-04T03:12:49.657Z,1018.26
2017-12-04T03:13:49.673Z,1018.22
2017-12-04T03:14:49.689Z,1018.25
2017-12-04T03:15:49.705Z,1018.23
2017-12-04T03:16:49.725Z,1018.24
2017-12-04T03:17:49.740Z,1018.30
2017-12-04T03:18:49.759Z,1018.29
2017-12-04T03:19:49.774Z,1018.28
2017-12-04T03:20:49.791Z,1018.29
2017-12-04T03:21:49.907Z,1018.31
2017-12-04T03:22:49.874Z,1018.29
2017-12-04T03:23:49.841Z,1018.29
2017-12-04T03:24:49.858Z,1018.30
2017-12-04T03:25:49.873Z,1018.24
2017-12-04T03:26:49.890Z,1018.28
2017-12-04T03:27:49.908Z,1018.24
2017-12-04T03:28:49.925Z,1018.28
2017-12-04T03:29:49.942Z,1018.31
2017-12-04T03:30:49.958Z,1018.31
2017-12-04T03:31:49.974Z,1018.28
2017-12-04T03:32:49.992Z,1018.31
2017-12-04T03:33:50.008Z,1018.26
2017-12-04T03:34:50.031Z,1018.22
2017-12-04T03:35:50.042Z,1018.21
2017-12-04T03:36:50.058Z,1018.26
2017-12-04T03:37:50.077Z,1018.20
2017-12-04T03:38:50.092Z,1018.24
2017-12-04T03:39:50.112Z,1018.24
2017-12-04T03:40:50.126Z,1018.27
2017-12-04T03:41:50.144Z,1018.29
2017-12-04T03:42:50.162Z,1018.30
2017-12-04T03:43:50.177Z,1018.35
2017-12-04T03:44:50.194Z,1018.33
2017-12-04T03:45:50.211Z,1018.31
2017-12-04T03:46:50.228Z,1018.33
2017-12-04T03:47:50.244Z,1018.33
2017-12-04T03:48:50.262Z,1018.26
2017-12-04T03:49:50.278Z,1018.29
2017-12-04T03:50:50.295Z,1018.32
2017-12-04T03:51:50.314Z,1018.32
2017-12-04T03:52:50.329Z,1018.31
2017-12-04T03:53:50.445Z,1018.31
2017-12-04T03:54:50.362Z,1018.34
2017-12-04T03:55:50.379Z,1018.35
2017-12-04T03:56:50.398Z,1018.32
2017-12-04T03:57:50.417Z,1018.34
2017-12-04T03:58:50.431Z,1018.29
2017-12-04T03:59:50.447Z,1018.40
2017-12-04T04:00:50.464Z,1018.38
2017-12-04T04:01:50.482Z,1018.43
2017-12-04T04:02:50.497Z,1018.47
2017-12-04T04:03:50.515Z,1018.43
2017-12-04T04:04:50.531Z,1018.42
2017-12-04T04:05:50.548Z,1018.43
2017-12-04T04:06:50.566Z,1018.38
2017-12-04T04:07:50.582Z,1018.40
2017-12-04T04:08:50.599Z,1018.40
2017-12-04T04:09:50.616Z,1018.38
2017-12-04T04:10:50.632Z,1018.42
2017-12-04T04:11:50.651Z,1018.43
2017-12-04T04:12:50.716Z,1018.43
2017-12-04T04:13:50.684Z,1018.45
2017-12-04T04:14:50.700Z,1018.41
2017-12-04T04:15:50.717Z,1018.42
2017-12-04T04:16:50.734Z,1018.44
2017-12-04T04:17:50.753Z,1018.43
2017-12-04T04:18:50.768Z,1018.46
2017-12-04T04:19:50.785Z,1018.48
2017-12-04T04:20:50.801Z,1018.50
2017-12-04T04:21:50.819Z,1018.47
2017-12-04T04:22:50.885Z,1018.44
2017-12-04T04:23:50.852Z,1018.43
2017-12-04T04:24:50.871Z,1018.45
2017-12-04T04:25:50.886Z,1018.44
2017-12-04T04:26:50.904Z,1018.48
2017-12-04T04:27:50.919Z,1018.42
2017-12-04T04:28:50.938Z,1018.44
2017-12-04T04:29:50.955Z,1018.45
2017-12-04T04:30:50.970Z,1018.47
2017-12-04T04:31:50.989Z,1018.46
2017-12-04T04:32:51.005Z,1018.48
2017-12-04T04:33:51.022Z,1018.50
2017-12-04T04:34:51.037Z,1018.49
2017-12-04T04:35:51.056Z,1018.39
2017-12-04T04:36:51.072Z,1018.46
2017-12-04T04:37:51.091Z,1018.41
2017-12-04T04:38:51.106Z,1018.42
2017-12-04T04:39:51.128Z,1018.43
2017-12-04T04:40:51.141Z,1018.38
2017-12-04T04:41:51.158Z,1018.42
2017-12-04T04:42:51.173Z,1018.41
2017-12-04T04:43:51.190Z,1018.49
2017-12-04T04:44:51.208Z,1018.45
2017-12-04T04:45:51.225Z,1018.46
2017-12-04T04:46:51.241Z,1018.48
2017-12-04T04:47:51.257Z,1018.39
2017-12-04T04:48:51.280Z,1018.37
2017-12-04T04:49:51.292Z,1018.36
2017-12-04T04:50:51.309Z,1018.43
2017-12-04T04:51:51.326Z,1018.42
2017-12-04T04:52:51.347Z,1018.50
2017-12-04T04:53:51.361Z,1018.43
2017-12-04T04:54:51.377Z,1018.54
2017-12-04T04:55:51.393Z,1018.53
2017-12-04T04:56:51.410Z,1018.51
2017-12-04T04:57:51.428Z,1018.52
2017-12-04T04:58:51.450Z,1018.54
2017-12-04T04:59:51.462Z,1018.54
2017-12-04T05:00:51.478Z,1018.49
2017-12-04T05:01:51.494Z,1018.47
2017-12-04T05:02:51.511Z,1018.50
2017-12-04T05:03:51.529Z,1018.52
2017-12-04T05:04:51.546Z,1018.46
2017-12-04T05:05:51.564Z,1018.49
2017-12-04T05:06:51.584Z,1018.47
2017-12-04T05:07:51.596Z,1018.47
2017-12-04T05:08:51.613Z,1018.49
2017-12-04T05:09:51.630Z,1018.42
2017-12-04T05:10:51.646Z,1018.48
2017-12-04T05:11:51.665Z,1018.51
2017-12-04T05:12:51.680Z,1018.50
2017-12-04T05:13:51.698Z,1018.46
2017-12-04T05:14:51.715Z,1018.49
2017-12-04T05:15:51.732Z,1018.49
2017-12-04T05:16:51.753Z,1018.52
2017-12-04T05:17:51.767Z,1018.50
2017-12-04T05:18:51.782Z,1018.53
2017-12-04T05:19:51.800Z,1018.55
2017-12-04T05:20:51.816Z,1018.55
2017-12-04T05:21:51.833Z,1018.58
2017-12-04T05:22:51.851Z,1018.61
2017-12-04T05:23:51.866Z,1018.58
2017-12-04T05:24:51.883Z,1018.63
2017-12-04T05:25:51.902Z,1018.64
2017-12-04T05:26:51.918Z,1018.60
2017-12-04T05:27:51.935Z,1018.57
2017-12-04T05:28:51.952Z,1018.58
2017-12-04T05:29:51.968Z,1018.60
2017-12-04T05:30:52.039Z,1018.63
2017-12-04T05:31:52.001Z,1018.62
2017-12-04T05:32:52.019Z,1018.63
2017-12-04T05:33:52.036Z,1018.67
2017-12-04T05:34:52.054Z,1018.68
2017-12-04T05:35:52.070Z,1018.66
2017-12-04T05:36:52.088Z,1018.68
2017-12-04T05:37:52.105Z,1018.67
2017-12-04T05:38:52.120Z,1018.71
2017-12-04T05:39:52.137Z,1018.67
2017-12-04T05:40:52.155Z,1018.70
2017-12-04T05:41:52.172Z,1018.69
2017-12-04T05:42:52.188Z,1018.64
2017-12-04T05:43:52.205Z,1018.60
2017-12-04T05:44:52.223Z,1018.64
2017-12-04T05:45:52.239Z,1018.64
2017-12-04T05:46:52.255Z,1018.63
2017-12-04T05:47:52.272Z,1018.63
2017-12-04T05:48:52.289Z,1018.63
2017-12-04T05:49:52.309Z,1018.60
2017-12-04T05:50:52.324Z,1018.62
2017-12-04T05:51:52.353Z,1018.64
2017-12-04T05:52:52.358Z,1018.60
2017-12-04T05:53:52.376Z,1018.65
2017-12-04T05:54:52.392Z,1018.66
2017-12-04T05:55:52.408Z,1018.65
2017-12-04T05:56:52.427Z,1018.62
2017-12-04T05:57:52.443Z,1018.63
2017-12-04T05:58:52.459Z,1018.60
2017-12-04T05:59:52.476Z,1018.60
2017-12-04T06:00:52.493Z,1018.68
2017-12-04T06:01:52.511Z,1018.68
2017-12-04T06:02:52.528Z,1018.72
2017-12-04T06:03:52.545Z,1018.75
2017-12-04T06:04:52.564Z,1018.74
2017-12-04T06:05:52.578Z,1018.75
2017-12-04T06:06:52.596Z,1018.80
2017-12-04T06:07:52.662Z,1018.83
2017-12-04T06:08:52.629Z,1018.83
2017-12-04T06:09:52.646Z,1018.86
2017-12-04T06:10:52.662Z,1018.86
2017-12-04T06:11:52.680Z,1018.86
2017-12-04T06:12:52.697Z,1018.85
2017-12-04T06:13:52.715Z,1018.81
2017-12-04T06:14:52.730Z,1018.85
2017-12-04T06:15:52.748Z,1018.83
2017-12-04T06:16:52.766Z,1018.87
2017-12-04T06:17:52.782Z,1018.90
2017-12-04T06:18:52.801Z,1018.94
2017-12-04T06:19:52.815Z,1018.98
2017-12-04T06:20:52.833Z,1018.98
2017-12-04T06:21:52.850Z,1018.95
2017-12-04T06:22:52.866Z,1019.04
2017-12-04T06:23:52.882Z,1018.94
2017-12-04T06:24:52.901Z,1019.00
2017-12-04T06:25:52.918Z,1018.94
2017-12-04T06:26:52.969Z,1019.01
2017-12-04T06:27:52.951Z,1018.96
2017-12-04T06:28:52.967Z,1018.98
2017-12-04T06:29:52.987Z,1019.02
2017-12-04T06:30:53.002Z,1019.02
2017-12-04T06:31:53.018Z,1019.01
2017-12-04T06:32:53.035Z,1019.03
2017-12-04T06:33:53.053Z,1019.01
2017-12-04T06:34:53.070Z,1019.07
2017-12-04T06:35:53.085Z,1019.04
2017-12-04T06:36:53.103Z,1019.07
2017-12-04T06:37:53.120Z,1019.02
2017-12-04T06:38:53.137Z,1019.04
2017-12-04T06:39:53.153Z,1019.07
2017-12-04T06:40:53.170Z,1019.03
2017-12-04T06:41:53.188Z,1019.03
2017-12-04T06:42:53.204Z,1019.03
2017-12-04T06:43:53.222Z,1019.10
2017-12-04T06:44:53.238Z,1019.12
2017-12-04T06:45:53.262Z,1019.15
2017-12-04T06:46:53.272Z,1019.14
2017-12-04T06:47:53.289Z,1019.17
2017-12-04T06:48:53.307Z,1019.16
2017-12-04T06:49:53.324Z,1019.20
2017-12-04T06:50:53.489Z,1019.17
2017-12-04T06:51:53.356Z,1019.23
2017-12-04T06:52:53.375Z,1019.25
2017-12-04T06:53:53.391Z,1019.25
2017-12-04T06:54:53.408Z,1019.22
2017-12-04T06:55:53.424Z,1019.19
2017-12-04T06:56:53.442Z,1019.19
2017-12-04T06:57:53.459Z,1019.24
2017-12-04T06:58:53.474Z,1019.25
2017-12-04T06:59:53.491Z,1019.32
2017-12-04T07:00:53.510Z,1019.30
2017-12-04T07:01:53.526Z,1019.27
2017-12-04T07:02:53.544Z,1019.35
2017-12-04T07:03:53.559Z,1019.34
2017-12-04T07:04:53.578Z,1019.33
2017-12-04T07:05:53.595Z,1019.31
2017-12-04T07:06:53.611Z,1019.37
2017-12-04T07:07:53.627Z,1019.35
2017-12-04T07:08:53.648Z,1019.36
2017-12-04T07:09:53.663Z,1019.38
2017-12-04T07:10:53.680Z,1019.44
2017-12-04T07:11:53.695Z,1019.48
2017-12-04T07:12:53.714Z,1019.50
2017-12-04T07:13:53.730Z,1019.53
2017-12-04T07:14:53.747Z,1019.55
2017-12-04T07:15:53.763Z,1019.52
2017-12-04T07:16:53.781Z,1019.56
2017-12-04T07:17:53.799Z,1019.56
2017-12-04T07:18:53.814Z,1019.54
2017-12-04T07:19:53.832Z,1019.55
2017-12-04T07:20:53.850Z,1019.55
2017-12-04T07:21:53.868Z,1019.52
2017-12-04T07:22:53.882Z,1019.50
2017-12-04T07:23:53.899Z,1019.53
2017-12-04T07:24:53.917Z,1019.55
2017-12-04T07:25:53.934Z,1019.58
2017-12-04T07:26:53.954Z,1019.57
2017-12-04T07:27:53.968Z,1019.54
2017-12-04T07:28:53.984Z,1019.59
2017-12-04T07:29:54.003Z,1019.57
2017-12-04T07:30:54.018Z,1019.60
2017-12-04T07:31:54.036Z,1019.61
2017-12-04T07:32:54.053Z,1019.64
2017-12-04T07:33:54.071Z,1019.66
2017-12-04T07:34:54.088Z,1019.69
2017-12-04T07:35:54.104Z,1019.69
2017-12-04T07:36:54.120Z,1019.71
2017-12-04T07:37:54.139Z,1019.74
2017-12-04T07:38:54.155Z,1019.76
2017-12-04T07:39:54.171Z,1019.78
2017-12-04T07:40:54.195Z,1019.76
2017-12-04T07:41:54.205Z,1019.79
2017-12-04T07:42:54.323Z,1019.76
2017-12-04T07:43:54.239Z,1019.78
2017-12-04T07:44:54.257Z,1019.80
2017-12-04T07:45:54.275Z,1019.79
2017-12-04T07:46:54.290Z,1019.83
2017-12-04T07:47:54.307Z,1019.79
2017-12-04T07:48:54.327Z,1019.77
2017-12-04T07:49:54.343Z,1019.80
2017-12-04T07:50:54.362Z,1019.75
2017-12-04T07:51:54.376Z,1019.76
2017-12-04T07:52:54.392Z,1019.75
2017-12-04T07:53:54.412Z,1019.79
2017-12-04T07:54:54.428Z,1019.77
2017-12-04T07:55:54.445Z,1019.74
2017-12-04T07:56:54.462Z,1019.77
2017-12-04T07:57:54.478Z,1019.77
2017-12-04T07:58:54.496Z,1019.73
2017-12-04T07:59:54.513Z,1019.75
2017-12-04T08:00:54.530Z,1019.74
2017-12-04T08:01:54.547Z,1019.75
2017-12-04T08:02:54.563Z,1019.77
2017-12-04T08:03:54.581Z,1019.79
2017-12-04T08:04:54.598Z,1019.75
2017-12-04T08:05:54.616Z,1019.78
2017-12-04T08:06:54.646Z,1019.74
2017-12-04T08:07:54.651Z,1019.81
2017-12-04T08:08:54.667Z,1019.80
2017-12-04T08:09:54.685Z,1019.82
2017-12-04T08:10:54.703Z,1019.82
2017-12-04T08:11:54.717Z,1019.81
2017-12-04T08:12:54.735Z,1019.79
2017-12-04T08:13:54.904Z,1019.82
2017-12-04T08:14:54.770Z,1019.85
2017-12-04T08:15:54.786Z,1019.90
2017-12-04T08:16:54.803Z,1019.86
2017-12-04T08:17:54.821Z,1019.85
2017-12-04T08:18:54.837Z,1019.82
2017-12-04T08:19:54.882Z,1019.81
2017-12-04T08:20:54.919Z,1019.83
2017-12-04T08:21:54.891Z,1019.85
2017-12-04T08:22:55.056Z,1019.84
2017-12-04T08:23:54.924Z,1019.90
2017-12-04T08:24:54.941Z,1019.89
2017-12-04T08:25:54.960Z,1019.93
2017-12-04T08:26:54.976Z,1019.94
2017-12-04T08:27:54.993Z,1019.95
2017-12-04T08:28:55.015Z,1020.02
2017-12-04T08:29:55.030Z,1020.05
2017-12-04T08:30:55.045Z,1020.08
2017-12-04T08:31:55.063Z,1020.07
2017-12-04T08:32:55.081Z,1020.05
2017-12-04T08:33:55.101Z,1020.08
2017-12-04T08:34:55.114Z,1020.08
2017-12-04T08:35:55.132Z,1020.08
2017-12-04T08:36:55.150Z,1020.12
2017-12-04T08:37:55.168Z,1020.06
2017-12-04T08:38:55.184Z,1020.15
2017-12-04T08:39:55.200Z,1020.14
2017-12-04T08:40:55.218Z,1020.11
2017-12-04T08:41:55.236Z,1020.15
2017-12-04T08:42:55.253Z,1020.14
2017-12-04T08:43:55.269Z,1020.20
2017-12-04T08:44:55.288Z,1020.24
2017-12-04T08:45:55.304Z,1020.27
2017-12-04T08:46:55.322Z,1020.29
2017-12-04T08:47:55.342Z,1020.31
2017-12-04T08:48:55.356Z,1020.33
2017-12-04T08:49:55.375Z,1020.31
2017-12-04T08:50:55.391Z,1020.33
2017-12-04T08:51:55.407Z,1020.33
2017-12-04T08:52:55.426Z,1020.38
2017-12-04T08:53:55.448Z,1020.38
2017-12-04T08:54:55.459Z,1020.42
2017-12-04T08:55:55.476Z,1020.46
2017-12-04T08:56:55.494Z,1020.48
2017-12-04T08:57:55.520Z,1020.45
2017-12-04T08:58:55.530Z,1020.53
2017-12-04T08:59:55.597Z,1020.55
2017-12-04T09:00:55.563Z,1020.55
2017-12-04T09:01:55.585Z,1020.57
2017-12-04T09:02:55.597Z,1020.58
2017-12-04T09:03:55.615Z,1020.58
2017-12-04T09:04:55.633Z,1020.63
2017-12-04T09:05:55.651Z,1020.65
2017-12-04T09:06:55.667Z,1020.72
2017-12-04T09:07:55.684Z,1020.74
2017-12-04T09:08:55.703Z,1020.75
2017-12-04T09:09:55.722Z,1020.75
2017-12-04T09:10:55.737Z,1020.78
2017-12-04T09:11:55.754Z,1020.75
2017-12-04T09:12:55.770Z,1020.82
2017-12-04T09:13:55.789Z,1020.80
2017-12-04T09:14:55.805Z,1020.80
2017-12-04T09:15:55.822Z,1020.88
2017-12-04T09:16:55.840Z,1020.92
2017-12-04T09:17:55.957Z,1020.89
2017-12-04T09:18:55.875Z,1020.94
2017-12-04T09:19:55.891Z,1020.96
2017-12-04T09:20:55.909Z,1020.91
2017-12-04T09:21:55.926Z,1020.97
2017-12-04T09:22:55.944Z,1021.01
2017-12-04T09:23:55.961Z,1020.99
2017-12-04T09:24:55.979Z,1020.99
2017-12-04T09:25:55.996Z,1020.98
2017-12-04T09:26:56.012Z,1021.05
2017-12-04T09:27:56.029Z,1021.06
2017-12-04T09:28:56.047Z,1021.04
2017-12-04T09:29:56.069Z,1021.01
2017-12-04T09:30:56.081Z,1020.99
2017-12-04T09:31:56.098Z,1020.99
2017-12-04T09:32:56.116Z,1021.03
2017-12-04T09:33:56.133Z,1021.02
2017-12-04T09:34:56.149Z,1021.04
2017-12-04T09:35:56.166Z,1021.03
2017-12-04T09:36:56.186Z,1021.03
2017-12-04T09:37:56.202Z,1021.08
2017-12-04T09:38:56.218Z,1021.08
2017-12-04T09:39:56.235Z,1021.09
2017-12-04T09:40:56.254Z,1021.11
2017-12-04T09:41:56.271Z,1021.12
2017-12-04T09:42:56.288Z,1021.12
2017-12-04T09:43:56.304Z,1021.13
2017-12-04T09:44:56.423Z,1021.10
2017-12-04T09:45:56.340Z,1021.19
2017-12-04T09:46:56.355Z,1021.21
2017-12-04T09:47:56.374Z,1021.23
2017-12-04T09:48:56.390Z,1021.22
2017-12-04T09:49:56.412Z,1021.25
2017-12-04T09:50:56.426Z,1021.25
2017-12-04T09:51:56.449Z,1021.27
2017-12-04T09:52:56.461Z,1021.27
2017-12-04T09:53:56.478Z,1021.25
2017-12-04T09:54:56.493Z,1021.26
2017-12-04T09:55:56.510Z,1021.27
2017-12-04T09:56:56.529Z,1021.29
2017-12-04T09:57:56.546Z,1021.29
2017-12-04T09:58:56.563Z,1021.34
2017-12-04T09:59:56.580Z,1021.30
2017-12-04T10:00:56.597Z,1021.32
2017-12-04T10:01:56.616Z,1021.31
2017-12-04T10:02:56.631Z,1021.30
2017-12-04T10:03:56.649Z,1021.30
2017-12-04T10:04:56.666Z,1021.35
2017-12-04T10:05:56.691Z,1021.34
2017-12-04T10:06:56.702Z,1021.32
2017-12-04T10:07:56.718Z,1021.38
2017-12-04T10:08:56.737Z,1021.35
2017-12-04T10:09:56.753Z,1021.28
2017-12-04T10:10:56.770Z,1021.34
2017-12-04T10:11:56.787Z,1021.35
2017-12-04T10:12:56.807Z,1021.35
2017-12-04T10:13:56.823Z,1021.35
2017-12-04T10:14:56.839Z,1021.38
2017-12-04T10:15:56.857Z,1021.33
2017-12-04T10:16:56.874Z,1021.32
2017-12-04T10:17:56.893Z,1021.35
2017-12-04T10:18:56.908Z,1021.35
2017-12-04T10:19:56.928Z,1021.38
2017-12-04T10:20:56.945Z,1021.39
2017-12-04T10:21:56.961Z,1021.37
2017-12-04T10:22:56.978Z,1021.36
2017-12-04T10:23:56.996Z,1021.34
2017-12-04T10:24:57.015Z,1021.43
2017-12-04T10:25:57.031Z,1021.42
2017-12-04T10:26:57.049Z,1021.38
2017-12-04T10:27:57.067Z,1021.36
2017-12-04T10:28:57.085Z,1021.32
2017-12-04T10:29:57.103Z,1021.34
2017-12-04T10:30:57.119Z,1021.27
2017-12-04T10:31:57.136Z,1021.33
2017-12-04T10:32:57.154Z,1021.33
2017-12-04T10:33:57.173Z,1021.35
2017-12-04T10:34:57.188Z,1021.33
2017-12-04T10:35:57.206Z,1021.35
2017-12-04T10:36:57.223Z,1021.35
2017-12-04T10:37:57.244Z,1021.34
2017-12-04T10:38:57.259Z,1021.30
2017-12-04T10:39:57.277Z,1021.27
2017-12-04T10:40:57.295Z,1021.33
2017-12-04T10:41:57.313Z,1021.31
2017-12-04T10:42:57.329Z,1021.31
2017-12-04T10:43:57.347Z,1021.34
2017-12-04T10:44:57.364Z,1021.31
2017-12-04T10:45:57.382Z,1021.39
2017-12-04T10:46:57.398Z,1021.37
2017-12-04T10:47:57.416Z,1021.43
2017-12-04T10:48:57.434Z,1021.39
2017-12-04T10:49:57.453Z,1021.45
2017-12-04T10:50:57.469Z,1021.47
2017-12-04T10:51:57.487Z,1021.53
2017-12-04T10:52:57.506Z,1021.52
2017-12-04T10:53:57.522Z,1021.53
2017-12-04T10:54:57.541Z,1021.52
2017-12-04T10:55:57.558Z,1021.55
2017-12-04T10:56:57.577Z,1021.54
2017-12-04T10:57:57.593Z,1021.58
2017-12-04T10:58:57.612Z,1021.64
2017-12-04T10:59:57.627Z,1021.61
2017-12-04T11:00:57.646Z,1021.67
2017-12-04T11:01:57.663Z,1021.65
2017-12-04T11:02:57.680Z,1021.67
2017-12-04T11:03:57.700Z,1021.72
2017-12-04T11:04:57.718Z,1021.67
2017-12-04T11:05:57.736Z,1021.63
2017-12-04T11:06:57.751Z,1021.70
2017-12-04T11:07:57.768Z,1021.67
2017-12-04T11:08:57.787Z,1021.68
2017-12-04T11:09:57.803Z,1021.69
2017-12-04T11:10:57.821Z,1021.72
2017-12-04T11:11:57.837Z,1021.61
2017-12-04T11:12:57.857Z,1021.52
2017-12-04T11:13:57.874Z,1021.42
2017-12-04T11:14:57.890Z,1021.42
2017-12-04T11:15:57.908Z,1021.40
2017-12-04T11:16:57.927Z,1021.41
2017-12-04T11:17:57.943Z,1021.42
2017-12-04T11:18:57.959Z,1021.41
2017-12-04T11:19:57.982Z,1021.43
2017-12-04T11:20:57.996Z,1021.46
2017-12-04T11:21:58.013Z,1021.45
2017-12-04T11:22:58.030Z,1021.44
2017-12-04T11:23:58.050Z,1021.42
2017-12-04T11:24:58.065Z,1021.43
2017-12-04T11:25:58.085Z,1021.49
2017-12-04T11:26:58.101Z,1021.43
2017-12-04T11:27:58.122Z,1021.45
2017-12-04T11:28:58.137Z,1021.50
2017-12-04T11:29:58.167Z,1021.51
2017-12-04T11:30:58.171Z,1021.46
2017-12-04T11:31:58.189Z,1021.45
2017-12-04T11:32:58.206Z,1021.43
2017-12-04T11:33:58.225Z,1021.48
2017-12-04T11:34:58.241Z,1021.46
2017-12-04T11:35:58.259Z,1021.42
2017-12-04T11:36:58.278Z,1021.45
2017-12-04T11:37:58.295Z,1021.49
2017-12-04T11:38:58.312Z,1021.45
2017-12-04T11:39:58.331Z,1021.45
2017-12-04T11:40:58.395Z,1021.43
2017-12-04T11:41:58.367Z,1021.46
2017-12-04T11:42:58.397Z,1021.46
2017-12-04T11:43:58.400Z,1021.45
2017-12-04T11:44:58.419Z,1021.42
2017-12-04T11:45:58.436Z,1021.43
2017-12-04T11:46:58.454Z,1021.40
2017-12-04T11:47:58.478Z,1021.46
2017-12-04T11:48:58.490Z,1021.43
2017-12-04T11:49:58.508Z,1021.41
2017-12-04T11:50:58.525Z,1021.46
2017-12-04T11:51:58.542Z,1021.49
2017-12-04T11:52:58.562Z,1021.44
2017-12-04T11:53:58.579Z,1021.48
2017-12-04T11:54:58.596Z,1021.41
2017-12-04T11:55:58.614Z,1021.40
2017-12-04T11:56:58.630Z,1021.43
2017-12-04T11:57:58.649Z,1021.38
2017-12-04T11:58:58.665Z,1021.36
2017-12-04T11:59:58.689Z,1021.35
2017-12-04T12:00:58.702Z,1021.27
2017-12-04T12:01:58.820Z,1021.33
2017-12-04T12:02:58.738Z,1021.33
2017-12-04T12:03:58.755Z,1021.29
2017-12-04T12:04:58.776Z,1021.31
2017-12-04T12:05:58.792Z,1021.34
2017-12-04T12:06:58.809Z,1021.36